This is the latest recevied weather packets stored in our database for station/object OE3MHU-12. If no packets are shown the sender has not sent any weather packets the latest 10 day(s).
| Time | Temp. | Humidity | Pressure | Rain* | Wind** | Luminosity | Snow |
|---|---|---|---|---|---|---|---|
| 1777357567 | 8.33° C | 65% | 1020.6 hPa | 0 mm | - | - | - |
| 1777355767 | 5.56° C | 72% | 1020.7 hPa | 0 mm | - | - | - |
| 1777353967 | 3.33° C | 78% | 1020.6 hPa | 0 mm | - | - | - |
| 1777352167 | 1.67° C | 80% | 1020.5 hPa | 0 mm | - | - | - |
| 1777350367 | 1.11° C | 80% | 1020.3 hPa | 0 mm | - | - | - |
| 1777348568 | 1.11° C | 80% | 1020.1 hPa | 0 mm | - | - | - |
| 1777346768 | 1.11° C | 79% | 1020.2 hPa | 0 mm | - | - | - |
| 1777344968 | 1.11° C | 78% | 1020.4 hPa | 0 mm | - | - | - |
| 1777343168 | 1.67° C | 78% | 1020.4 hPa | 0 mm | - | - | - |
| 1777341368 | 1.67° C | 77% | 1020.4 hPa | 0 mm | - | - | - |
| 1777339568 | 2.22° C | 77% | 1020.4 hPa | 0 mm | - | - | - |
| 1777337768 | 2.22° C | 77% | 1020.4 hPa | 0 mm | - | - | - |
| 1777335968 | 2.78° C | 75% | 1020.4 hPa | 0 mm | - | - | - |
| 1777334168 | 2.78° C | 74% | 1020.5 hPa | 0 mm | - | - | - |
| 1777332368 | 3.33° C | 73% | 1020.6 hPa | 0 mm | - | - | - |
| 1777330568 | 4.44° C | 72% | 1020.4 hPa | 0 mm | - | - | - |
| 1777328769 | 5° C | 71% | 1020.5 hPa | 0 mm | - | - | - |
| 1777326969 | 5.56° C | 70% | 1020.6 hPa | 0 mm | - | - | - |
| 1777325169 | 6.67° C | 68% | 1020.5 hPa | 0 mm | - | - | - |
| 1777323369 | 7.78° C | 65% | 1020.5 hPa | 0 mm | - | - | - |
| 1777321569 | 9.44° C | 64% | 1020.4 hPa | 0 mm | - | - | - |
| 1777319769 | 10° C | 61% | 1020.3 hPa | 0 mm | - | - | - |
| 1777317969 | 11.11° C | 57% | 1020.1 hPa | 0 mm | - | - | - |
| 1777316169 | 11.67° C | 56% | 1020.2 hPa | 0 mm | - | - | - |
| 1777314369 | 13.33° C | 51% | 1019.8 hPa | 0 mm | - | - | - |
* Rain latest hour (hover to see other rain measurements)
** Current wind speed in m/s (hover to see current wind gust speed)